Mesa, Arizona
Current Conditions -  °F | °C
As of 5:47 AM on Thursday 30 Oct 2014 (Local Time) from KCHD Reporting Station
Clear Clear  
Wind Chill: 61°   Ceiling: Unl
Heat Index: 61°   Visibility: 15mi
Dew Point: 45°   Wind: 0mph
Humidity: 55%   Direction: NA
Pressure: 30.01"   Gusts: NA
Location:  33.42°N, 111.83°W
Report Text: KCHD 301247Z 00000KT 15SM SKC 16/07 A3001
Loading
Personal Weather Stations






























Interactive Weather Map New forecast layout! Learn more

10-Day Weather Forecast

Advertisements
Track Severe Weather on mobile